Terminal Aerodrome Forecast
Issued by NWS

Home | Current Version | Previous Version | Text Only | Print | Product List | Glossary On
Versions: 1 2 3 4 5 6 7 8 9 10 11 12 13 14 15 16
000
FTUS43 KEAX 141100
TAFMKC
TAF
KMKC 141125Z 1412/1512 24005KT P6SM SCT250
     FM141500 33008KT P6SM VCTS BKN080CB
      TEMPO 1415/1419 4SM -TSRA BKN030CB
     FM142000 34014KT P6SM SCT080
     FM150100 35006KT P6SM SKC=

USA.gov is the U.S. government's official web portal to all federal, state and local government web resources and services.